createdAt,value
2019-05-22T00:01:59.831Z,22.20
2019-05-22T00:04:32.160Z,22.20
2019-05-22T00:07:03.391Z,22.20
2019-05-22T00:09:38.495Z,22.20
2019-05-22T00:12:11.453Z,22.20
2019-05-22T00:14:41.654Z,22.20
2019-05-22T00:17:15.319Z,22.20
2019-05-22T00:19:46.006Z,22.20
2019-05-22T00:22:27.509Z,22.20
2019-05-22T00:24:58.548Z,22.20
2019-05-22T00:27:30.504Z,22.20
2019-05-22T00:30:02.114Z,22.20
2019-05-22T00:32:32.949Z,22.20
2019-05-22T00:35:02.261Z,22.20
2019-05-22T00:37:32.311Z,22.10
2019-05-22T00:40:03.019Z,22.10
2019-05-22T00:42:34.073Z,22.10
2019-05-22T00:45:04.868Z,22.10
2019-05-22T00:47:35.986Z,22.20
2019-05-22T00:50:08.451Z,22.10
2019-05-22T00:52:46.409Z,22.10
2019-05-22T00:55:33.452Z,22.10
2019-05-22T00:58:18.865Z,22.10
2019-05-22T01:01:13.412Z,22.10
2019-05-22T01:03:43.484Z,22.10
2019-05-22T01:06:15.397Z,22.10
2019-05-22T01:08:46.009Z,22.10
2019-05-22T01:11:15.632Z,22.10
2019-05-22T01:13:46.654Z,22.10
2019-05-22T01:16:18.110Z,22.10
2019-05-22T01:18:47.325Z,22.10
2019-05-22T01:21:22.020Z,22.10
2019-05-22T01:23:52.767Z,22.10
2019-05-22T01:26:22.921Z,22.10
2019-05-22T01:28:53.166Z,22.10
2019-05-22T01:31:27.748Z,22.10
2019-05-22T01:34:03.222Z,22.10
2019-05-22T01:36:36.210Z,22.10
2019-05-22T01:39:44.977Z,22.10
2019-05-22T01:42:15.782Z,22.10
2019-05-22T01:44:59.698Z,22.10
2019-05-22T01:47:32.072Z,22.10
2019-05-22T01:50:03.212Z,22.10
2019-05-22T01:52:33.662Z,22.10
2019-05-22T01:55:02.735Z,22.10
2019-05-22T01:57:32.756Z,22.00
2019-05-22T02:00:03.490Z,22.00
2019-05-22T02:02:33.222Z,22.00
2019-05-22T02:05:04.254Z,22.00
2019-05-22T02:07:34.910Z,22.00
2019-05-22T02:10:04.240Z,22.00
2019-05-22T02:12:44.049Z,22.00
2019-05-22T02:15:13.284Z,22.00
2019-05-22T02:17:42.544Z,22.00
2019-05-22T02:20:14.156Z,22.00
2019-05-22T02:22:44.691Z,22.00
2019-05-22T02:25:15.510Z,22.00
2019-05-22T02:27:46.165Z,22.00
2019-05-22T02:30:18.525Z,22.00
2019-05-22T02:32:48.993Z,22.00
2019-05-22T02:35:19.175Z,22.00
2019-05-22T02:37:48.812Z,22.00
2019-05-22T02:40:24.378Z,22.00
2019-05-22T02:42:53.676Z,22.00
2019-05-22T02:45:23.398Z,22.00
2019-05-22T02:47:53.687Z,22.00
2019-05-22T02:50:23.721Z,22.00
2019-05-22T02:52:53.349Z,22.00
2019-05-22T02:55:22.668Z,22.00
2019-05-22T02:57:52.298Z,22.00
2019-05-22T03:00:24.110Z,22.00
2019-05-22T03:02:55.546Z,22.00
2019-05-22T03:05:25.020Z,22.00
2019-05-22T03:07:54.617Z,22.00
2019-05-22T03:10:26.704Z,22.00
2019-05-22T03:12:58.281Z,22.00
2019-05-22T03:15:28.108Z,22.00
2019-05-22T03:18:01.851Z,22.00
2019-05-22T03:20:33.087Z,22.00
2019-05-22T03:23:34.914Z,22.00
2019-05-22T03:26:05.460Z,22.00
2019-05-22T03:28:35.596Z,22.00
2019-05-22T03:31:06.714Z,22.00
2019-05-22T03:33:36.700Z,22.00
2019-05-22T03:36:11.064Z,22.00
2019-05-22T03:38:41.562Z,22.00
2019-05-22T03:41:12.595Z,21.90
2019-05-22T03:43:44.937Z,22.00
2019-05-22T03:46:38.086Z,21.90
2019-05-22T03:49:28.233Z,21.90
2019-05-22T03:51:41.382Z,21.90
2019-05-22T03:54:11.502Z,21.90
2019-05-22T03:56:42.332Z,21.90
2019-05-22T03:59:12.449Z,21.90
2019-05-22T04:01:42.713Z,21.90
2019-05-22T04:04:12.050Z,21.90
2019-05-22T04:06:41.173Z,21.90
2019-05-22T04:09:22.619Z,21.90
2019-05-22T04:11:53.508Z,21.90
2019-05-22T04:14:26.529Z,21.90
2019-05-22T04:16:55.928Z,21.90
2019-05-22T04:19:25.093Z,21.90
2019-05-22T04:21:55.031Z,21.90
2019-05-22T04:24:24.089Z,21.90
2019-05-22T04:26:53.322Z,21.90
2019-05-22T04:29:23.772Z,21.90
2019-05-22T04:32:00.234Z,21.90
2019-05-22T04:34:30.003Z,21.90
2019-05-22T04:36:59.690Z,21.90
2019-05-22T04:39:32.250Z,21.90
2019-05-22T04:42:02.202Z,21.90
2019-05-22T04:44:31.620Z,21.90
2019-05-22T04:47:01.297Z,21.90
2019-05-22T04:49:31.029Z,21.90
2019-05-22T04:52:00.677Z,21.90
2019-05-22T04:54:29.719Z,21.90
2019-05-22T04:56:58.913Z,21.90
2019-05-22T04:59:29.253Z,21.90
2019-05-22T05:01:59.074Z,21.90
2019-05-22T05:04:28.810Z,21.90
2019-05-22T05:06:58.421Z,21.90
2019-05-22T05:09:27.484Z,21.90
2019-05-22T05:11:56.726Z,21.90
2019-05-22T05:14:26.177Z,21.90
2019-05-22T05:16:55.736Z,21.90
2019-05-22T05:19:24.976Z,21.90
2019-05-22T05:21:54.351Z,21.90
2019-05-22T05:24:23.467Z,21.90
2019-05-22T05:26:53.856Z,21.90
2019-05-22T05:29:29.394Z,21.90
2019-05-22T05:32:00.356Z,21.90
2019-05-22T05:34:36.557Z,21.90
2019-05-22T05:37:08.058Z,21.90
2019-05-22T05:40:21.444Z,21.90
2019-05-22T05:42:50.599Z,21.80
2019-05-22T05:45:19.846Z,21.90
2019-05-22T05:47:48.912Z,21.90
2019-05-22T05:50:20.140Z,21.90
2019-05-22T05:52:51.224Z,21.90
2019-05-22T05:55:23.668Z,21.90
2019-05-22T05:58:32.881Z,21.80
2019-05-22T06:01:09.994Z,21.80
2019-05-22T06:03:41.302Z,21.80
2019-05-22T06:06:45.881Z,21.80
2019-05-22T06:09:19.881Z,21.80
2019-05-22T06:11:53.809Z,21.80
2019-05-22T06:14:25.640Z,21.90
2019-05-22T06:17:45.074Z,21.80
2019-05-22T06:20:19.197Z,21.80
2019-05-22T06:23:46.043Z,21.80
2019-05-22T06:26:40.697Z,21.80
2019-05-22T06:29:10.341Z,21.80
2019-05-22T06:31:49.492Z,21.80
2019-05-22T06:34:18.672Z,21.80
2019-05-22T06:36:48.520Z,21.80
2019-05-22T06:39:19.357Z,21.80
2019-05-22T06:41:49.204Z,21.80
2019-05-22T06:44:32.237Z,21.80
2019-05-22T06:47:01.934Z,21.80
2019-05-22T06:49:57.576Z,21.80
2019-05-22T06:52:27.330Z,21.80
2019-05-22T06:54:58.324Z,21.80
2019-05-22T06:57:29.441Z,21.80
2019-05-22T07:00:13.533Z,21.80
2019-05-22T07:02:32.341Z,21.80
2019-05-22T07:05:01.555Z,21.80
2019-05-22T07:07:30.740Z,21.80
2019-05-22T07:10:00.177Z,21.80
2019-05-22T07:12:31.528Z,21.80
2019-05-22T07:15:21.200Z,21.80
2019-05-22T07:17:53.248Z,21.80
2019-05-22T07:20:23.953Z,21.80
2019-05-22T07:22:53.927Z,21.80
2019-05-22T07:25:24.684Z,21.80
2019-05-22T07:27:54.314Z,21.80
2019-05-22T07:30:24.382Z,21.80
2019-05-22T07:32:55.270Z,21.80
2019-05-22T07:35:43.793Z,21.80
2019-05-22T07:37:56.989Z,21.80
2019-05-22T07:40:26.213Z,21.80
2019-05-22T07:42:55.687Z,21.80
2019-05-22T07:45:28.081Z,21.80
2019-05-22T07:47:58.173Z,21.80
2019-05-22T07:50:29.131Z,21.80
2019-05-22T07:52:58.465Z,21.80
2019-05-22T07:55:28.928Z,21.80
2019-05-22T07:58:13.045Z,21.80
2019-05-22T08:00:56.592Z,21.80
2019-05-22T08:03:26.997Z,21.80
2019-05-22T08:05:57.674Z,21.80
2019-05-22T08:08:29.683Z,21.80
2019-05-22T08:10:59.359Z,21.80
2019-05-22T08:13:29.236Z,21.80
2019-05-22T08:15:58.949Z,21.80
2019-05-22T08:18:32.531Z,21.80
2019-05-22T08:21:01.749Z,21.80
2019-05-22T08:23:30.991Z,21.80
2019-05-22T08:26:00.405Z,21.80
2019-05-22T08:28:32.176Z,21.80
2019-05-22T08:31:02.623Z,21.80
2019-05-22T08:33:33.021Z,21.80
2019-05-22T08:36:03.145Z,21.80
2019-05-22T08:38:33.550Z,21.80
2019-05-22T08:41:04.787Z,21.80
2019-05-22T08:43:55.829Z,21.80
2019-05-22T08:46:07.145Z,21.80
2019-05-22T08:48:38.475Z,21.80
2019-05-22T08:51:09.483Z,21.90
2019-05-22T08:53:47.490Z,21.90
2019-05-22T08:56:11.029Z,21.90
2019-05-22T08:58:42.281Z,21.80
2019-05-22T09:01:13.398Z,21.90
2019-05-22T09:03:42.680Z,21.90
2019-05-22T09:06:12.121Z,21.90
2019-05-22T09:08:41.393Z,21.90
2019-05-22T09:11:11.276Z,21.90
2019-05-22T09:13:40.674Z,21.90
2019-05-22T09:16:10.615Z,21.90
2019-05-22T09:18:39.948Z,21.90
2019-05-22T09:21:09.968Z,21.90
2019-05-22T09:23:41.070Z,21.90
2019-05-22T09:26:10.905Z,21.90
2019-05-22T09:28:40.367Z,21.90
2019-05-22T09:31:09.462Z,21.90
2019-05-22T09:33:39.425Z,21.90
2019-05-22T09:36:09.585Z,21.90
2019-05-22T09:38:39.221Z,21.90
2019-05-22T09:41:09.092Z,21.90
2019-05-22T09:43:38.228Z,21.90
2019-05-22T09:46:08.247Z,21.90
2019-05-22T09:48:37.618Z,21.90
2019-05-22T09:51:07.000Z,21.90
2019-05-22T09:53:38.036Z,21.90
2019-05-22T09:56:07.192Z,21.90
2019-05-22T09:58:36.375Z,21.90
2019-05-22T10:01:11.312Z,21.90
2019-05-22T10:03:38.685Z,21.90
2019-05-22T10:06:08.157Z,21.90
2019-05-22T10:08:37.364Z,21.80
2019-05-22T10:11:06.623Z,21.80
2019-05-22T10:13:36.167Z,21.90
2019-05-22T10:16:06.080Z,21.80
2019-05-22T10:18:35.239Z,21.90
2019-05-22T10:21:04.482Z,21.90
2019-05-22T10:23:33.710Z,21.90
2019-05-22T10:26:03.356Z,21.90
2019-05-22T10:28:33.015Z,21.90
2019-05-22T10:31:02.685Z,21.80
2019-05-22T10:33:32.002Z,21.80
2019-05-22T10:36:01.151Z,21.80
2019-05-22T10:38:30.196Z,21.80
2019-05-22T10:40:59.888Z,21.80
2019-05-22T10:43:29.501Z,21.80
2019-05-22T10:45:59.101Z,21.80
2019-05-22T10:48:28.462Z,21.80
2019-05-22T10:50:57.517Z,21.80
2019-05-22T10:53:33.874Z,21.80
2019-05-22T10:55:58.977Z,21.80
2019-05-22T10:58:28.244Z,21.80
2019-05-22T11:00:57.569Z,21.80
2019-05-22T11:03:27.123Z,21.80
2019-05-22T11:06:06.367Z,21.80
2019-05-22T11:08:31.840Z,21.80
2019-05-22T11:10:58.515Z,21.80
2019-05-22T11:13:27.788Z,21.80
2019-05-22T11:15:58.280Z,21.80
2019-05-22T11:18:28.808Z,21.80
2019-05-22T11:20:57.979Z,21.80
2019-05-22T11:23:28.001Z,21.80
2019-05-22T11:25:57.248Z,21.80
2019-05-22T11:28:27.833Z,21.80
2019-05-22T11:30:57.565Z,21.80
2019-05-22T11:33:26.630Z,21.80
2019-05-22T11:35:55.975Z,21.80
2019-05-22T11:38:25.212Z,21.80
2019-05-22T11:40:54.284Z,21.80
2019-05-22T11:43:23.311Z,21.80
2019-05-22T11:45:52.524Z,21.80
2019-05-22T11:48:22.353Z,21.80
2019-05-22T11:50:52.510Z,21.80
2019-05-22T11:53:21.961Z,21.80
2019-05-22T11:55:52.233Z,21.80
2019-05-22T11:58:21.405Z,21.80
2019-05-22T12:00:50.977Z,21.80
2019-05-22T12:03:22.736Z,21.90
2019-05-22T12:05:52.176Z,21.90
2019-05-22T12:08:22.731Z,21.90
2019-05-22T12:10:52.385Z,21.90
2019-05-22T12:13:21.452Z,21.90
2019-05-22T12:15:51.130Z,21.90
2019-05-22T12:18:20.273Z,21.90
2019-05-22T12:20:49.343Z,21.90
2019-05-22T12:23:18.801Z,21.90
2019-05-22T12:25:48.252Z,21.90
2019-05-22T12:28:17.702Z,22.00
2019-05-22T12:30:47.847Z,22.00
2019-05-22T12:33:17.177Z,22.00
2019-05-22T12:35:46.727Z,22.00
2019-05-22T12:38:16.337Z,22.00
2019-05-22T12:40:46.454Z,22.00
2019-05-22T12:43:15.987Z,22.00
2019-05-22T12:45:45.319Z,22.00
2019-05-22T12:48:15.846Z,22.00
2019-05-22T12:50:45.596Z,22.00
2019-05-22T12:53:16.832Z,22.00
2019-05-22T12:55:46.380Z,22.00
2019-05-22T12:58:15.540Z,22.00
2019-05-22T13:00:44.908Z,22.00
2019-05-22T13:03:14.955Z,22.10
2019-05-22T13:05:44.329Z,22.10
2019-05-22T13:08:15.159Z,22.10
2019-05-22T13:10:45.980Z,22.10
2019-05-22T13:13:15.409Z,22.10
2019-05-22T13:15:45.226Z,22.00
2019-05-22T13:18:18.170Z,22.10
2019-05-22T13:20:50.794Z,22.10
2019-05-22T13:23:22.441Z,22.10
2019-05-22T13:25:51.921Z,22.10
2019-05-22T13:28:22.256Z,22.10
2019-05-22T13:30:55.318Z,22.10
2019-05-22T13:33:29.274Z,22.20
2019-05-22T13:35:58.565Z,22.20
2019-05-22T13:38:28.273Z,22.20
2019-05-22T13:40:58.112Z,22.20
2019-05-22T13:43:28.596Z,22.20
2019-05-22T13:45:58.064Z,22.20
2019-05-22T13:48:28.429Z,22.30
2019-05-22T13:50:57.931Z,22.20
2019-05-22T13:53:28.680Z,22.20
2019-05-22T13:55:58.573Z,22.30
2019-05-22T13:58:29.139Z,22.30
2019-05-22T14:00:58.581Z,22.30
2019-05-22T14:03:28.401Z,22.30
2019-05-22T14:05:58.150Z,22.40
2019-05-22T14:08:27.981Z,22.30
2019-05-22T14:10:58.130Z,22.40
2019-05-22T14:13:27.689Z,22.30
2019-05-22T14:15:57.815Z,22.40
2019-05-22T14:18:27.415Z,22.40
2019-05-22T14:20:56.647Z,22.40
2019-05-22T14:23:26.009Z,22.40
2019-05-22T14:25:55.465Z,22.40
2019-05-22T14:28:27.298Z,22.50
2019-05-22T14:30:56.587Z,22.50
2019-05-22T14:33:27.942Z,22.50
2019-05-22T14:35:57.090Z,22.50
2019-05-22T14:38:26.948Z,22.40
2019-05-22T14:40:56.820Z,22.40
2019-05-22T14:43:26.765Z,22.40
2019-05-22T14:45:56.150Z,22.40
2019-05-22T14:48:25.567Z,22.40
2019-05-22T14:50:54.622Z,22.40
2019-05-22T14:53:23.690Z,22.40
2019-05-22T14:55:53.811Z,22.40
2019-05-22T14:58:23.953Z,22.40
2019-05-22T15:00:53.861Z,22.40
2019-05-22T15:03:24.105Z,22.40
2019-05-22T15:05:54.046Z,22.40
2019-05-22T15:08:23.451Z,22.40
2019-05-22T15:10:52.965Z,22.40
2019-05-22T15:13:22.442Z,22.40
2019-05-22T15:15:51.772Z,22.40
2019-05-22T15:18:20.824Z,22.40
2019-05-22T15:20:56.487Z,22.40
2019-05-22T15:23:26.749Z,22.40
2019-05-22T15:25:56.407Z,22.50
2019-05-22T15:28:26.749Z,22.50
2019-05-22T15:30:56.309Z,22.50
2019-05-22T15:33:25.648Z,22.50
2019-05-22T15:35:55.177Z,22.60
2019-05-22T15:38:24.560Z,22.50
2019-05-22T15:40:55.674Z,22.60
2019-05-22T15:43:26.398Z,22.60
2019-05-22T15:45:57.293Z,22.60
2019-05-22T15:48:29.904Z,22.50
2019-05-22T15:51:03.120Z,22.50
2019-05-22T15:53:33.248Z,22.50
2019-05-22T15:56:04.210Z,22.50
2019-05-22T15:58:35.054Z,22.50
2019-05-22T16:01:05.201Z,22.50
2019-05-22T16:03:35.915Z,22.50
2019-05-22T16:06:07.416Z,22.50
2019-05-22T16:08:37.468Z,22.50
2019-05-22T16:11:10.873Z,22.60
2019-05-22T16:13:42.015Z,22.60
2019-05-22T16:16:12.933Z,22.60
2019-05-22T16:18:44.429Z,22.70
2019-05-22T16:21:13.885Z,22.70
2019-05-22T16:23:43.430Z,22.70
2019-05-22T16:26:13.696Z,22.70
2019-05-22T16:28:45.726Z,22.70
2019-05-22T16:31:15.861Z,22.80
2019-05-22T16:33:47.865Z,22.80
2019-05-22T16:36:18.610Z,22.80
2019-05-22T16:38:48.236Z,22.80
2019-05-22T16:41:18.784Z,22.80
2019-05-22T16:43:50.427Z,22.80
2019-05-22T16:46:20.492Z,22.80
2019-05-22T16:48:50.455Z,22.80
2019-05-22T16:51:21.598Z,22.80
2019-05-22T16:53:53.850Z,22.80
2019-05-22T16:56:23.589Z,22.80
2019-05-22T16:58:53.709Z,22.80
2019-05-22T17:01:24.169Z,22.80
2019-05-22T17:03:56.569Z,22.80
2019-05-22T17:06:26.104Z,22.80
2019-05-22T17:08:57.137Z,22.90
2019-05-22T17:11:27.672Z,22.90
2019-05-22T17:13:59.121Z,22.90
2019-05-22T17:16:32.196Z,22.90
2019-05-22T17:19:01.516Z,22.90
2019-05-22T17:21:31.572Z,22.90
2019-05-22T17:24:01.868Z,22.90
2019-05-22T17:26:31.639Z,22.90
2019-05-22T17:29:01.685Z,22.90
2019-05-22T17:31:31.146Z,22.90
2019-05-22T17:34:00.483Z,22.90
2019-05-22T17:36:30.637Z,22.90
2019-05-22T17:39:01.068Z,22.90
2019-05-22T17:41:30.609Z,22.90
2019-05-22T17:44:01.468Z,22.90
2019-05-22T17:46:33.368Z,22.90
2019-05-22T17:49:04.949Z,22.90
2019-05-22T17:51:34.472Z,22.90
2019-05-22T17:54:04.483Z,22.90
2019-05-22T17:56:33.741Z,22.90
2019-05-22T17:59:03.156Z,22.90
2019-05-22T18:01:33.605Z,22.90
2019-05-22T18:04:02.752Z,22.90
2019-05-22T18:06:32.080Z,22.90
2019-05-22T18:09:01.320Z,22.90
2019-05-22T18:11:30.565Z,22.90
2019-05-22T18:14:05.159Z,22.80
2019-05-22T18:16:35.088Z,22.80
2019-05-22T18:19:07.564Z,22.80
2019-05-22T18:21:37.004Z,22.80
2019-05-22T18:24:06.744Z,22.80
2019-05-22T18:26:35.889Z,22.80
2019-05-22T18:29:05.749Z,22.80
2019-05-22T18:31:34.783Z,22.70
2019-05-22T18:34:04.058Z,22.70
2019-05-22T18:36:33.101Z,22.70
2019-05-22T18:39:02.156Z,22.70
2019-05-22T18:41:50.312Z,22.70
2019-05-22T18:44:19.492Z,22.70
2019-05-22T18:46:48.915Z,22.60
2019-05-22T18:49:18.068Z,22.70
2019-05-22T18:51:47.315Z,22.60
2019-05-22T18:54:18.960Z,22.70
2019-05-22T18:56:47.251Z,22.70
2019-05-22T18:59:16.313Z,22.70
2019-05-22T19:01:45.372Z,22.70
2019-05-22T19:04:14.546Z,22.60
2019-05-22T19:06:43.945Z,22.60
2019-05-22T19:09:13.826Z,22.60
2019-05-22T19:11:43.136Z,22.60
2019-05-22T19:14:12.658Z,22.60
2019-05-22T19:16:41.980Z,22.60
2019-05-22T19:19:11.161Z,22.60
2019-05-22T19:21:40.400Z,22.60
2019-05-22T19:24:09.528Z,22.60
2019-05-22T19:26:38.577Z,22.60
2019-05-22T19:29:07.741Z,22.50
2019-05-22T19:31:36.781Z,22.50
2019-05-22T19:34:06.339Z,22.50
2019-05-22T19:36:35.480Z,22.50
2019-05-22T19:39:06.300Z,22.50
2019-05-22T19:41:35.766Z,22.50
2019-05-22T19:44:05.384Z,22.60
2019-05-22T19:46:34.640Z,22.60
2019-05-22T19:49:04.205Z,22.50
2019-05-22T19:51:33.678Z,22.50
2019-05-22T19:54:03.648Z,22.50
2019-05-22T19:56:33.939Z,22.50
2019-05-22T19:59:04.490Z,22.50
2019-05-22T20:01:34.449Z,22.50
2019-05-22T20:04:05.046Z,22.50
2019-05-22T20:06:38.204Z,22.60
2019-05-22T20:09:10.183Z,22.50
2019-05-22T20:11:40.636Z,22.60
2019-05-22T20:14:10.845Z,22.60
2019-05-22T20:16:42.015Z,22.60
2019-05-22T20:19:12.117Z,22.50
2019-05-22T20:21:42.014Z,22.60
2019-05-22T20:24:12.399Z,22.60
2019-05-22T20:26:42.673Z,22.60
2019-05-22T20:29:14.357Z,22.60
2019-05-22T20:31:44.803Z,22.60
2019-05-22T20:34:15.385Z,22.60
2019-05-22T20:36:45.578Z,22.60
2019-05-22T20:39:16.281Z,22.60
2019-05-22T20:41:46.865Z,22.60
2019-05-22T20:44:17.039Z,22.60
2019-05-22T20:46:48.563Z,22.60
2019-05-22T20:49:19.902Z,22.60
2019-05-22T20:51:49.942Z,22.60
2019-05-22T20:54:20.686Z,22.60
2019-05-22T20:56:53.165Z,22.60
2019-05-22T20:59:24.472Z,22.60
2019-05-22T21:01:55.524Z,22.60
2019-05-22T21:04:27.378Z,22.60
2019-05-22T21:07:01.435Z,22.60
2019-05-22T21:09:31.703Z,22.60
2019-05-22T21:12:01.273Z,22.60
2019-05-22T21:14:30.795Z,22.60
2019-05-22T21:17:01.015Z,22.60
2019-05-22T21:19:32.427Z,22.60
2019-05-22T21:22:02.658Z,22.60
2019-05-22T21:24:36.143Z,22.60
2019-05-22T21:27:07.080Z,22.60
2019-05-22T21:29:37.669Z,22.60
2019-05-22T21:32:08.485Z,22.70
2019-05-22T21:34:39.299Z,22.60
2019-05-22T21:37:11.276Z,22.60
2019-05-22T21:39:42.186Z,22.70
2019-05-22T21:42:12.165Z,22.70
2019-05-22T21:44:42.361Z,22.70
2019-05-22T21:47:13.833Z,22.70
2019-05-22T21:49:44.270Z,22.60
2019-05-22T21:52:14.459Z,22.70
2019-05-22T21:54:44.808Z,22.70
2019-05-22T21:57:14.930Z,22.70
2019-05-22T21:59:45.505Z,22.70
2019-05-22T22:02:22.992Z,22.70
2019-05-22T22:04:53.733Z,22.70
2019-05-22T22:07:23.457Z,22.70
2019-05-22T22:09:53.477Z,22.70
2019-05-22T22:12:24.822Z,22.70
2019-05-22T22:14:53.925Z,22.60
2019-05-22T22:17:24.646Z,22.60
2019-05-22T22:19:54.509Z,22.70
2019-05-22T22:22:28.059Z,22.70
2019-05-22T22:24:57.260Z,22.70
2019-05-22T22:27:27.303Z,22.70
2019-05-22T22:29:57.210Z,22.60
2019-05-22T22:32:28.605Z,22.70
2019-05-22T22:34:58.844Z,22.70
2019-05-22T22:37:28.968Z,22.70
2019-05-22T22:39:59.674Z,22.70
2019-05-22T22:42:31.381Z,22.70
2019-05-22T22:45:04.195Z,22.70
2019-05-22T22:47:40.854Z,22.70
2019-05-22T22:50:11.860Z,22.70
2019-05-22T22:52:42.489Z,22.60
2019-05-22T22:55:14.176Z,22.60
2019-05-22T22:57:43.681Z,22.60
2019-05-22T23:00:17.098Z,22.70
2019-05-22T23:02:48.137Z,22.70
2019-05-22T23:05:17.644Z,22.70
2019-05-22T23:07:48.562Z,22.70
2019-05-22T23:10:20.080Z,22.70
2019-05-22T23:12:51.038Z,22.70
2019-05-22T23:15:21.684Z,22.70
2019-05-22T23:17:51.816Z,22.70
2019-05-22T23:20:19.309Z,22.70
2019-05-22T23:22:47.574Z,22.70
2019-05-22T23:25:19.309Z,22.60
2019-05-22T23:27:48.477Z,22.70
2019-05-22T23:30:20.505Z,22.70
2019-05-22T23:32:51.039Z,22.70
2019-05-22T23:35:24.525Z,22.70
2019-05-22T23:37:53.930Z,22.70
2019-05-22T23:40:28.531Z,22.70
2019-05-22T23:43:00.391Z,22.70
2019-05-22T23:45:29.436Z,22.70
2019-05-22T23:48:03.774Z,22.70
2019-05-22T23:50:36.625Z,22.70
2019-05-22T23:53:05.901Z,22.70
2019-05-22T23:55:36.225Z,22.70
2019-05-22T23:58:08.747Z,22.70
